sensor_id;sensor_type;location;lat;lon;timestamp;P1;durP1;ratioP1;P2;durP2;ratioP2
38399;SDS011;24180;42.676;23.320;2023-03-12T00:01:17;3.30;;;3.00;;
38399;SDS011;24180;42.676;23.320;2023-03-12T00:03:45;5.83;;;2.80;;
38399;SDS011;24180;42.676;23.320;2023-03-12T00:06:11;4.33;;;3.13;;
38399;SDS011;24180;42.676;23.320;2023-03-12T00:08:37;7.53;;;3.77;;
38399;SDS011;24180;42.676;23.320;2023-03-12T00:11:07;6.17;;;2.90;;
38399;SDS011;24180;42.676;23.320;2023-03-12T00:13:34;4.00;;;3.60;;
38399;SDS011;24180;42.676;23.320;2023-03-12T00:16:07;4.53;;;3.80;;
38399;SDS011;24180;42.676;23.320;2023-03-12T00:18:38;2.87;;;2.67;;
38399;SDS011;24180;42.676;23.320;2023-03-12T00:21:04;4.00;;;3.70;;
38399;SDS011;24180;42.676;23.320;2023-03-12T00:23:30;4.07;;;3.67;;
38399;SDS011;24180;42.676;23.320;2023-03-12T00:26:13;5.50;;;3.87;;
38399;SDS011;24180;42.676;23.320;2023-03-12T00:28:40;4.87;;;4.20;;
38399;SDS011;24180;42.676;23.320;2023-03-12T00:31:12;5.13;;;4.60;;
38399;SDS011;24180;42.676;23.320;2023-03-12T00:33:43;4.00;;;3.70;;
38399;SDS011;24180;42.676;23.320;2023-03-12T00:36:09;5.00;;;4.50;;
38399;SDS011;24180;42.676;23.320;2023-03-12T00:38:35;4.50;;;4.10;;
38399;SDS011;24180;42.676;23.320;2023-03-12T00:41:01;6.00;;;4.47;;
38399;SDS011;24180;42.676;23.320;2023-03-12T00:43:26;4.57;;;4.17;;
38399;SDS011;24180;42.676;23.320;2023-03-12T00:45:51;6.67;;;4.40;;
38399;SDS011;24180;42.676;23.320;2023-03-12T00:48:17;9.87;;;4.90;;
38399;SDS011;24180;42.676;23.320;2023-03-12T00:50:42;5.83;;;4.80;;
38399;SDS011;24180;42.676;23.320;2023-03-12T00:53:08;4.10;;;3.80;;
38399;SDS011;24180;42.676;23.320;2023-03-12T00:55:33;4.93;;;4.27;;
38399;SDS011;24180;42.676;23.320;2023-03-12T00:57:59;3.93;;;2.97;;
38399;SDS011;24180;42.676;23.320;2023-03-12T01:00:24;6.63;;;4.47;;
38399;SDS011;24180;42.676;23.320;2023-03-12T01:02:50;4.83;;;4.33;;
38399;SDS011;24180;42.676;23.320;2023-03-12T01:05:15;5.33;;;4.20;;
38399;SDS011;24180;42.676;23.320;2023-03-12T01:07:41;4.13;;;3.83;;
38399;SDS011;24180;42.676;23.320;2023-03-12T01:10:07;5.93;;;3.83;;
38399;SDS011;24180;42.676;23.320;2023-03-12T01:12:33;4.80;;;4.30;;
38399;SDS011;24180;42.676;23.320;2023-03-12T01:14:59;5.30;;;4.80;;
38399;SDS011;24180;42.676;23.320;2023-03-12T01:17:25;3.50;;;3.20;;
38399;SDS011;24180;42.676;23.320;2023-03-12T01:19:50;4.43;;;4.07;;
38399;SDS011;24180;42.676;23.320;2023-03-12T01:22:16;3.87;;;3.57;;
38399;SDS011;24180;42.676;23.320;2023-03-12T01:24:41;4.10;;;3.47;;
38399;SDS011;24180;42.676;23.320;2023-03-12T01:27:06;3.27;;;3.00;;
38399;SDS011;24180;42.676;23.320;2023-03-12T01:29:32;4.40;;;3.70;;
38399;SDS011;24180;42.676;23.320;2023-03-12T01:31:57;4.13;;;3.77;;
38399;SDS011;24180;42.676;23.320;2023-03-12T01:34:23;3.30;;;3.00;;
38399;SDS011;24180;42.676;23.320;2023-03-12T01:36:48;3.67;;;3.00;;
38399;SDS011;24180;42.676;23.320;2023-03-12T01:39:13;4.63;;;4.23;;
38399;SDS011;24180;42.676;23.320;2023-03-12T01:41:39;8.77;;;3.97;;
38399;SDS011;24180;42.676;23.320;2023-03-12T01:44:05;6.07;;;4.10;;
38399;SDS011;24180;42.676;23.320;2023-03-12T01:49:07;4.37;;;4.03;;
38399;SDS011;24180;42.676;23.320;2023-03-12T01:54:22;4.80;;;4.47;;
38399;SDS011;24180;42.676;23.320;2023-03-12T01:56:57;3.80;;;3.50;;
38399;SDS011;24180;42.676;23.320;2023-03-12T01:59:27;4.93;;;4.53;;
38399;SDS011;24180;42.676;23.320;2023-03-12T02:01:56;4.87;;;4.47;;
38399;SDS011;24180;42.676;23.320;2023-03-12T02:04:22;5.10;;;4.70;;
38399;SDS011;24180;42.676;23.320;2023-03-12T02:07:00;6.33;;;4.87;;
38399;SDS011;24180;42.676;23.320;2023-03-12T02:09:30;5.60;;;5.00;;
38399;SDS011;24180;42.676;23.320;2023-03-12T02:11:57;5.87;;;4.90;;
38399;SDS011;24180;42.676;23.320;2023-03-12T02:14:23;4.30;;;3.90;;
38399;SDS011;24180;42.676;23.320;2023-03-12T02:16:49;4.33;;;3.93;;
38399;SDS011;24180;42.676;23.320;2023-03-12T02:19:17;4.97;;;4.53;;
38399;SDS011;24180;42.676;23.320;2023-03-12T02:21:47;5.03;;;4.53;;
38399;SDS011;24180;42.676;23.320;2023-03-12T02:24:21;8.03;;;4.40;;
38399;SDS011;24180;42.676;23.320;2023-03-12T02:26:54;3.87;;;3.57;;
38399;SDS011;24180;42.676;23.320;2023-03-12T02:29:20;6.30;;;4.80;;
38399;SDS011;24180;42.676;23.320;2023-03-12T02:31:51;3.57;;;3.27;;
38399;SDS011;24180;42.676;23.320;2023-03-12T02:34:20;5.67;;;3.70;;
38399;SDS011;24180;42.676;23.320;2023-03-12T02:36:46;4.87;;;4.47;;
38399;SDS011;24180;42.676;23.320;2023-03-12T02:39:12;9.33;;;4.20;;
38399;SDS011;24180;42.676;23.320;2023-03-12T02:41:48;3.90;;;3.50;;
38399;SDS011;24180;42.676;23.320;2023-03-12T02:44:24;4.40;;;4.00;;
38399;SDS011;24180;42.676;23.320;2023-03-12T02:46:53;3.90;;;3.60;;
38399;SDS011;24180;42.676;23.320;2023-03-12T02:49:21;4.77;;;4.37;;
38399;SDS011;24180;42.676;23.320;2023-03-12T02:51:48;4.07;;;3.77;;
38399;SDS011;24180;42.676;23.320;2023-03-12T02:54:15;4.40;;;4.10;;
38399;SDS011;24180;42.676;23.320;2023-03-12T02:56:42;6.33;;;4.07;;
38399;SDS011;24180;42.676;23.320;2023-03-12T02:59:08;7.03;;;4.07;;
38399;SDS011;24180;42.676;23.320;2023-03-12T03:01:34;4.93;;;4.17;;
38399;SDS011;24180;42.676;23.320;2023-03-12T03:04:00;3.53;;;3.23;;
38399;SDS011;24180;42.676;23.320;2023-03-12T03:06:26;5.30;;;4.23;;
38399;SDS011;24180;42.676;23.320;2023-03-12T03:08:52;3.23;;;3.00;;
38399;SDS011;24180;42.676;23.320;2023-03-12T03:11:17;4.13;;;3.80;;
38399;SDS011;24180;42.676;23.320;2023-03-12T03:13:43;3.97;;;3.67;;
38399;SDS011;24180;42.676;23.320;2023-03-12T03:16:09;6.47;;;4.27;;
38399;SDS011;24180;42.676;23.320;2023-03-12T03:18:36;3.43;;;3.17;;
38399;SDS011;24180;42.676;23.320;2023-03-12T03:21:06;4.77;;;4.33;;
38399;SDS011;24180;42.676;23.320;2023-03-12T03:23:32;3.30;;;3.00;;
38399;SDS011;24180;42.676;23.320;2023-03-12T03:25:58;3.87;;;3.47;;
38399;SDS011;24180;42.676;23.320;2023-03-12T03:28:24;5.23;;;3.57;;
38399;SDS011;24180;42.676;23.320;2023-03-12T03:30:51;3.23;;;2.93;;
38399;SDS011;24180;42.676;23.320;2023-03-12T03:33:18;3.13;;;2.93;;
38399;SDS011;24180;42.676;23.320;2023-03-12T03:35:43;3.90;;;3.60;;
38399;SDS011;24180;42.676;23.320;2023-03-12T03:38:09;3.40;;;3.10;;
38399;SDS011;24180;42.676;23.320;2023-03-12T03:40:34;3.13;;;2.83;;
38399;SDS011;24180;42.676;23.320;2023-03-12T03:42:59;3.50;;;3.20;;
38399;SDS011;24180;42.676;23.320;2023-03-12T03:45:25;4.60;;;3.70;;
38399;SDS011;24180;42.676;23.320;2023-03-12T03:47:50;3.73;;;3.47;;
38399;SDS011;24180;42.676;23.320;2023-03-12T03:50:16;3.07;;;2.87;;
38399;SDS011;24180;42.676;23.320;2023-03-12T03:52:41;3.00;;;2.80;;
38399;SDS011;24180;42.676;23.320;2023-03-12T03:55:07;3.53;;;3.23;;
38399;SDS011;24180;42.676;23.320;2023-03-12T03:57:33;3.40;;;3.10;;
38399;SDS011;24180;42.676;23.320;2023-03-12T03:59:58;3.70;;;3.40;;
38399;SDS011;24180;42.676;23.320;2023-03-12T04:02:25;3.63;;;3.33;;
38399;SDS011;24180;42.676;23.320;2023-03-12T04:04:51;3.10;;;2.90;;
38399;SDS011;24180;42.676;23.320;2023-03-12T04:07:17;3.20;;;3.00;;
38399;SDS011;24180;42.676;23.320;2023-03-12T04:09:43;2.80;;;2.60;;
38399;SDS011;24180;42.676;23.320;2023-03-12T04:12:08;3.93;;;3.53;;
38399;SDS011;24180;42.676;23.320;2023-03-12T04:14:34;3.07;;;2.87;;
38399;SDS011;24180;42.676;23.320;2023-03-12T04:16:59;3.07;;;2.70;;
38399;SDS011;24180;42.676;23.320;2023-03-12T04:19:24;4.57;;;4.10;;
38399;SDS011;24180;42.676;23.320;2023-03-12T04:21:50;4.23;;;2.97;;
38399;SDS011;24180;42.676;23.320;2023-03-12T04:24:16;2.97;;;2.77;;
38399;SDS011;24180;42.676;23.320;2023-03-12T04:26:42;2.80;;;2.60;;
38399;SDS011;24180;42.676;23.320;2023-03-12T04:29:08;4.10;;;3.70;;
38399;SDS011;24180;42.676;23.320;2023-03-12T04:31:33;3.23;;;3.00;;
38399;SDS011;24180;42.676;23.320;2023-03-12T04:33:59;3.50;;;3.20;;
38399;SDS011;24180;42.676;23.320;2023-03-12T04:36:24;4.10;;;2.83;;
38399;SDS011;24180;42.676;23.320;2023-03-12T04:38:51;3.50;;;3.20;;
38399;SDS011;24180;42.676;23.320;2023-03-12T04:41:16;3.57;;;3.27;;
38399;SDS011;24180;42.676;23.320;2023-03-12T04:43:42;3.03;;;2.83;;
38399;SDS011;24180;42.676;23.320;2023-03-12T04:46:08;2.97;;;2.77;;
38399;SDS011;24180;42.676;23.320;2023-03-12T04:48:34;3.17;;;2.97;;
38399;SDS011;24180;42.676;23.320;2023-03-12T04:51:00;3.13;;;2.60;;
38399;SDS011;24180;42.676;23.320;2023-03-12T04:53:25;2.60;;;2.40;;
38399;SDS011;24180;42.676;23.320;2023-03-12T04:55:51;4.57;;;3.53;;
38399;SDS011;24180;42.676;23.320;2023-03-12T04:58:17;5.53;;;3.47;;
38399;SDS011;24180;42.676;23.320;2023-03-12T05:00:43;3.53;;;3.23;;
38399;SDS011;24180;42.676;23.320;2023-03-12T05:03:09;3.93;;;2.97;;
38399;SDS011;24180;42.676;23.320;2023-03-12T05:05:34;3.50;;;3.20;;
38399;SDS011;24180;42.676;23.320;2023-03-12T05:08:00;3.13;;;2.83;;
38399;SDS011;24180;42.676;23.320;2023-03-12T05:10:26;3.43;;;3.23;;
38399;SDS011;24180;42.676;23.320;2023-03-12T05:12:51;2.73;;;2.47;;
38399;SDS011;24180;42.676;23.320;2023-03-12T05:15:17;3.57;;;3.27;;
38399;SDS011;24180;42.676;23.320;2023-03-12T05:17:43;4.13;;;3.47;;
38399;SDS011;24180;42.676;23.320;2023-03-12T05:20:09;3.90;;;3.60;;
38399;SDS011;24180;42.676;23.320;2023-03-12T05:22:34;4.63;;;4.23;;
38399;SDS011;24180;42.676;23.320;2023-03-12T05:25:00;4.00;;;3.60;;
38399;SDS011;24180;42.676;23.320;2023-03-12T05:27:26;3.20;;;3.00;;
38399;SDS011;24180;42.676;23.320;2023-03-12T05:29:51;3.70;;;3.40;;
38399;SDS011;24180;42.676;23.320;2023-03-12T05:32:17;3.77;;;3.47;;
38399;SDS011;24180;42.676;23.320;2023-03-12T05:34:42;3.30;;;2.90;;
38399;SDS011;24180;42.676;23.320;2023-03-12T05:37:08;3.43;;;3.13;;
38399;SDS011;24180;42.676;23.320;2023-03-12T05:39:33;3.53;;;3.23;;
38399;SDS011;24180;42.676;23.320;2023-03-12T05:41:59;3.10;;;2.90;;
38399;SDS011;24180;42.676;23.320;2023-03-12T05:44:25;3.47;;;3.17;;
38399;SDS011;24180;42.676;23.320;2023-03-12T05:46:51;2.77;;;2.63;;
38399;SDS011;24180;42.676;23.320;2023-03-12T05:49:17;3.50;;;3.20;;
38399;SDS011;24180;42.676;23.320;2023-03-12T05:51:45;3.23;;;2.93;;
38399;SDS011;24180;42.676;23.320;2023-03-12T05:54:12;3.50;;;3.20;;
38399;SDS011;24180;42.676;23.320;2023-03-12T05:56:37;4.03;;;3.10;;
38399;SDS011;24180;42.676;23.320;2023-03-12T05:59:03;3.13;;;2.60;;
38399;SDS011;24180;42.676;23.320;2023-03-12T06:01:32;3.00;;;2.80;;
38399;SDS011;24180;42.676;23.320;2023-03-12T06:03:57;4.47;;;3.30;;
38399;SDS011;24180;42.676;23.320;2023-03-12T06:06:23;3.20;;;2.83;;
38399;SDS011;24180;42.676;23.320;2023-03-12T06:08:49;3.27;;;2.97;;
38399;SDS011;24180;42.676;23.320;2023-03-12T06:11:15;2.90;;;2.70;;
38399;SDS011;24180;42.676;23.320;2023-03-12T06:13:44;3.47;;;3.17;;
38399;SDS011;24180;42.676;23.320;2023-03-12T06:16:10;2.90;;;2.70;;
38399;SDS011;24180;42.676;23.320;2023-03-12T06:18:41;3.13;;;2.93;;
38399;SDS011;24180;42.676;23.320;2023-03-12T06:21:14;2.60;;;2.40;;
38399;SDS011;24180;42.676;23.320;2023-03-12T06:23:41;3.07;;;2.70;;
38399;SDS011;24180;42.676;23.320;2023-03-12T06:26:07;3.30;;;3.00;;
38399;SDS011;24180;42.676;23.320;2023-03-12T06:28:33;2.77;;;2.57;;
38399;SDS011;24180;42.676;23.320;2023-03-12T06:30:59;2.83;;;2.63;;
38399;SDS011;24180;42.676;23.320;2023-03-12T06:33:25;3.50;;;3.20;;
38399;SDS011;24180;42.676;23.320;2023-03-12T06:35:54;3.53;;;3.23;;
38399;SDS011;24180;42.676;23.320;2023-03-12T06:38:21;3.20;;;2.90;;
38399;SDS011;24180;42.676;23.320;2023-03-12T06:40:58;3.10;;;2.80;;
38399;SDS011;24180;42.676;23.320;2023-03-12T06:43:25;3.30;;;3.00;;
38399;SDS011;24180;42.676;23.320;2023-03-12T06:45:52;3.43;;;3.17;;
38399;SDS011;24180;42.676;23.320;2023-03-12T06:48:19;3.57;;;3.27;;
38399;SDS011;24180;42.676;23.320;2023-03-12T06:50:47;3.20;;;3.00;;
38399;SDS011;24180;42.676;23.320;2023-03-12T06:53:13;3.60;;;3.30;;
38399;SDS011;24180;42.676;23.320;2023-03-12T06:55:38;3.67;;;3.37;;
38399;SDS011;24180;42.676;23.320;2023-03-12T06:58:04;6.87;;;3.43;;
38399;SDS011;24180;42.676;23.320;2023-03-12T07:00:30;3.50;;;3.23;;
38399;SDS011;24180;42.676;23.320;2023-03-12T07:02:56;3.93;;;2.93;;
38399;SDS011;24180;42.676;23.320;2023-03-12T07:05:22;3.00;;;2.70;;
38399;SDS011;24180;42.676;23.320;2023-03-12T07:07:48;3.07;;;2.87;;
38399;SDS011;24180;42.676;23.320;2023-03-12T07:10:13;3.23;;;3.03;;
38399;SDS011;24180;42.676;23.320;2023-03-12T07:12:39;2.93;;;2.73;;
38399;SDS011;24180;42.676;23.320;2023-03-12T07:15:05;3.50;;;3.10;;
38399;SDS011;24180;42.676;23.320;2023-03-12T07:17:30;3.33;;;3.03;;
38399;SDS011;24180;42.676;23.320;2023-03-12T07:19:56;2.87;;;2.67;;
38399;SDS011;24180;42.676;23.320;2023-03-12T07:22:21;2.87;;;2.67;;
38399;SDS011;24180;42.676;23.320;2023-03-12T07:24:47;2.77;;;2.57;;
38399;SDS011;24180;42.676;23.320;2023-03-12T07:27:12;2.83;;;2.63;;
38399;SDS011;24180;42.676;23.320;2023-03-12T07:29:38;2.87;;;2.67;;
38399;SDS011;24180;42.676;23.320;2023-03-12T07:32:03;3.07;;;2.83;;
38399;SDS011;24180;42.676;23.320;2023-03-12T07:34:29;4.07;;;2.90;;
38399;SDS011;24180;42.676;23.320;2023-03-12T07:36:54;3.50;;;3.20;;
38399;SDS011;24180;42.676;23.320;2023-03-12T07:39:20;2.70;;;2.60;;
38399;SDS011;24180;42.676;23.320;2023-03-12T07:41:46;2.97;;;2.77;;
38399;SDS011;24180;42.676;23.320;2023-03-12T07:44:11;2.60;;;2.40;;
38399;SDS011;24180;42.676;23.320;2023-03-12T07:46:36;3.20;;;3.00;;
38399;SDS011;24180;42.676;23.320;2023-03-12T07:49:02;2.80;;;2.60;;
38399;SDS011;24180;42.676;23.320;2023-03-12T07:51:28;2.73;;;2.57;;
38399;SDS011;24180;42.676;23.320;2023-03-12T07:53:54;3.13;;;2.93;;
38399;SDS011;24180;42.676;23.320;2023-03-12T07:56:19;3.20;;;2.90;;
38399;SDS011;24180;42.676;23.320;2023-03-12T07:58:45;2.97;;;2.77;;
38399;SDS011;24180;42.676;23.320;2023-03-12T08:01:10;3.47;;;2.60;;
38399;SDS011;24180;42.676;23.320;2023-03-12T08:03:36;2.80;;;2.60;;
38399;SDS011;24180;42.676;23.320;2023-03-12T08:06:03;4.60;;;2.60;;
38399;SDS011;24180;42.676;23.320;2023-03-12T08:08:29;3.10;;;2.90;;
38399;SDS011;24180;42.676;23.320;2023-03-12T08:10:55;3.33;;;3.03;;
38399;SDS011;24180;42.676;23.320;2023-03-12T08:13:21;3.00;;;2.80;;
38399;SDS011;24180;42.676;23.320;2023-03-12T08:15:48;3.17;;;2.97;;
38399;SDS011;24180;42.676;23.320;2023-03-12T08:18:16;3.00;;;2.77;;
38399;SDS011;24180;42.676;23.320;2023-03-12T08:20:42;2.80;;;2.60;;
38399;SDS011;24180;42.676;23.320;2023-03-12T08:23:07;3.60;;;3.40;;
38399;SDS011;24180;42.676;23.320;2023-03-12T08:25:33;3.50;;;3.20;;
38399;SDS011;24180;42.676;23.320;2023-03-12T08:28:00;3.47;;;3.17;;
38399;SDS011;24180;42.676;23.320;2023-03-12T08:30:27;3.90;;;3.60;;
38399;SDS011;24180;42.676;23.320;2023-03-12T08:32:53;3.10;;;2.90;;
38399;SDS011;24180;42.676;23.320;2023-03-12T08:35:18;2.60;;;2.50;;
38399;SDS011;24180;42.676;23.320;2023-03-12T08:37:44;2.60;;;2.50;;
38399;SDS011;24180;42.676;23.320;2023-03-12T08:40:09;3.33;;;2.87;;
38399;SDS011;24180;42.676;23.320;2023-03-12T08:42:42;2.10;;;2.00;;
38399;SDS011;24180;42.676;23.320;2023-03-12T08:45:08;3.47;;;2.70;;
38399;SDS011;24180;42.676;23.320;2023-03-12T08:47:39;3.50;;;2.87;;
38399;SDS011;24180;42.676;23.320;2023-03-12T08:50:07;2.93;;;2.73;;
38399;SDS011;24180;42.676;23.320;2023-03-12T08:52:34;2.90;;;2.70;;
38399;SDS011;24180;42.676;23.320;2023-03-12T08:54:59;3.13;;;2.83;;
38399;SDS011;24180;42.676;23.320;2023-03-12T08:57:24;2.33;;;2.23;;
38399;SDS011;24180;42.676;23.320;2023-03-12T08:59:50;5.07;;;3.00;;
38399;SDS011;24180;42.676;23.320;2023-03-12T09:02:15;3.40;;;3.10;;
38399;SDS011;24180;42.676;23.320;2023-03-12T09:04:41;2.83;;;2.63;;
38399;SDS011;24180;42.676;23.320;2023-03-12T09:07:06;2.90;;;2.70;;
38399;SDS011;24180;42.676;23.320;2023-03-12T09:09:33;4.47;;;2.90;;
38399;SDS011;24180;42.676;23.320;2023-03-12T09:11:59;3.30;;;2.90;;
38399;SDS011;24180;42.676;23.320;2023-03-12T09:14:24;4.60;;;2.80;;
38399;SDS011;24180;42.676;23.320;2023-03-12T09:16:49;5.40;;;3.70;;
38399;SDS011;24180;42.676;23.320;2023-03-12T09:19:15;3.67;;;3.30;;
38399;SDS011;24180;42.676;23.320;2023-03-12T09:21:40;3.20;;;2.60;;
38399;SDS011;24180;42.676;23.320;2023-03-12T09:24:06;3.60;;;3.00;;
38399;SDS011;24180;42.676;23.320;2023-03-12T09:26:32;2.73;;;2.53;;
38399;SDS011;24180;42.676;23.320;2023-03-12T09:28:57;3.03;;;2.73;;
38399;SDS011;24180;42.676;23.320;2023-03-12T09:31:23;3.37;;;2.90;;
38399;SDS011;24180;42.676;23.320;2023-03-12T09:33:49;3.50;;;3.20;;
38399;SDS011;24180;42.676;23.320;2023-03-12T09:36:15;3.30;;;3.00;;
38399;SDS011;24180;42.676;23.320;2023-03-12T09:38:42;3.53;;;2.90;;
38399;SDS011;24180;42.676;23.320;2023-03-12T09:41:18;3.27;;;3.00;;
38399;SDS011;24180;42.676;23.320;2023-03-12T09:49:05;5.87;;;3.50;;
38399;SDS011;24180;42.676;23.320;2023-03-12T09:51:40;2.87;;;2.67;;
38399;SDS011;24180;42.676;23.320;2023-03-12T09:54:20;3.43;;;3.13;;
38399;SDS011;24180;42.676;23.320;2023-03-12T09:57:11;3.57;;;3.20;;
38399;SDS011;24180;42.676;23.320;2023-03-12T09:59:40;3.27;;;2.83;;
38399;SDS011;24180;42.676;23.320;2023-03-12T10:02:15;3.77;;;3.40;;
38399;SDS011;24180;42.676;23.320;2023-03-12T10:04:59;4.23;;;3.30;;
38399;SDS011;24180;42.676;23.320;2023-03-12T10:07:33;3.40;;;3.10;;
38399;SDS011;24180;42.676;23.320;2023-03-12T10:10:05;3.60;;;3.30;;
38399;SDS011;24180;42.676;23.320;2023-03-12T10:23:58;2.50;;;2.40;;
38399;SDS011;24180;42.676;23.320;2023-03-12T10:28:59;3.30;;;3.10;;
38399;SDS011;24180;42.676;23.320;2023-03-12T10:31:52;3.80;;;3.60;;
38399;SDS011;24180;42.676;23.320;2023-03-12T10:34:24;3.17;;;2.90;;
38399;SDS011;24180;42.676;23.320;2023-03-12T10:37:10;3.40;;;3.20;;
38399;SDS011;24180;42.676;23.320;2023-03-12T10:39:41;3.50;;;3.20;;
38399;SDS011;24180;42.676;23.320;2023-03-12T10:42:11;3.00;;;2.80;;
38399;SDS011;24180;42.676;23.320;2023-03-12T10:44:40;3.50;;;3.30;;
38399;SDS011;24180;42.676;23.320;2023-03-12T10:47:06;3.67;;;3.27;;
38399;SDS011;24180;42.676;23.320;2023-03-12T10:49:33;3.50;;;3.20;;
38399;SDS011;24180;42.676;23.320;2023-03-12T10:52:04;4.07;;;3.77;;
38399;SDS011;24180;42.676;23.320;2023-03-12T10:54:41;4.23;;;3.20;;
38399;SDS011;24180;42.676;23.320;2023-03-12T10:57:09;3.60;;;3.30;;
38399;SDS011;24180;42.676;23.320;2023-03-12T10:59:36;3.70;;;3.40;;
38399;SDS011;24180;42.676;23.320;2023-03-12T11:02:23;3.20;;;3.00;;
38399;SDS011;24180;42.676;23.320;2023-03-12T11:04:51;4.20;;;3.90;;
38399;SDS011;24180;42.676;23.320;2023-03-12T11:09:43;3.40;;;3.10;;
38399;SDS011;24180;42.676;23.320;2023-03-12T11:12:28;3.10;;;2.90;;
38399;SDS011;24180;42.676;23.320;2023-03-12T11:14:59;3.33;;;3.13;;
38399;SDS011;24180;42.676;23.320;2023-03-12T11:17:44;3.47;;;3.17;;
38399;SDS011;24180;42.676;23.320;2023-03-12T11:20:28;3.60;;;3.40;;
38399;SDS011;24180;42.676;23.320;2023-03-12T11:22:54;3.50;;;3.30;;
38399;SDS011;24180;42.676;23.320;2023-03-12T11:25:24;3.80;;;3.50;;
38399;SDS011;24180;42.676;23.320;2023-03-12T11:27:53;5.27;;;4.30;;
38399;SDS011;24180;42.676;23.320;2023-03-12T11:30:40;4.60;;;4.00;;
38399;SDS011;24180;42.676;23.320;2023-03-12T11:33:08;3.47;;;3.17;;
38399;SDS011;24180;42.676;23.320;2023-03-12T11:38:44;3.50;;;3.20;;
38399;SDS011;24180;42.676;23.320;2023-03-12T11:58:59;2.93;;;2.73;;
38399;SDS011;24180;42.676;23.320;2023-03-12T12:00:59;3.30;;;3.00;;
38399;SDS011;24180;42.676;23.320;2023-03-12T12:06:33;2.57;;;2.37;;
38399;SDS011;24180;42.676;23.320;2023-03-12T12:17:46;3.23;;;3.03;;
38399;SDS011;24180;42.676;23.320;2023-03-12T12:20:45;3.60;;;3.30;;
38399;SDS011;24180;42.676;23.320;2023-03-12T12:26:18;3.10;;;2.90;;
38399;SDS011;24180;42.676;23.320;2023-03-12T12:32:40;3.47;;;3.17;;
38399;SDS011;24180;42.676;23.320;2023-03-12T12:35:23;3.23;;;2.93;;
38399;SDS011;24180;42.676;23.320;2023-03-12T12:38:10;3.10;;;2.80;;
38399;SDS011;24180;42.676;23.320;2023-03-12T12:45:52;4.10;;;3.30;;
38399;SDS011;24180;42.676;23.320;2023-03-12T12:51:07;4.07;;;3.30;;
38399;SDS011;24180;42.676;23.320;2023-03-12T13:01:47;3.90;;;3.10;;
38399;SDS011;24180;42.676;23.320;2023-03-12T13:04:32;2.97;;;2.77;;
38399;SDS011;24180;42.676;23.320;2023-03-12T13:07:02;3.03;;;2.80;;
38399;SDS011;24180;42.676;23.320;2023-03-12T13:09:38;2.97;;;2.77;;
38399;SDS011;24180;42.676;23.320;2023-03-12T13:12:12;3.23;;;2.97;;
38399;SDS011;24180;42.676;23.320;2023-03-12T13:14:44;3.10;;;2.90;;
38399;SDS011;24180;42.676;23.320;2023-03-12T13:17:24;3.27;;;2.90;;
38399;SDS011;24180;42.676;23.320;2023-03-12T13:20:13;3.57;;;3.27;;
38399;SDS011;24180;42.676;23.320;2023-03-12T13:22:44;2.97;;;2.70;;
38399;SDS011;24180;42.676;23.320;2023-03-12T13:33:52;3.23;;;3.03;;
38399;SDS011;24180;42.676;23.320;2023-03-12T13:36:26;3.13;;;2.93;;
38399;SDS011;24180;42.676;23.320;2023-03-12T13:41:38;3.30;;;2.90;;
38399;SDS011;24180;42.676;23.320;2023-03-12T13:49:25;3.53;;;3.33;;
38399;SDS011;24180;42.676;23.320;2023-03-12T13:54:24;3.60;;;2.90;;
38399;SDS011;24180;42.676;23.320;2023-03-12T13:57:01;4.77;;;2.87;;
38399;SDS011;24180;42.676;23.320;2023-03-12T13:59:29;2.77;;;2.57;;
38399;SDS011;24180;42.676;23.320;2023-03-12T14:01:58;3.17;;;2.87;;
38399;SDS011;24180;42.676;23.320;2023-03-12T14:04:29;3.40;;;3.10;;
38399;SDS011;24180;42.676;23.320;2023-03-12T14:12:23;3.23;;;2.90;;
38399;SDS011;24180;42.676;23.320;2023-03-12T14:15:20;3.20;;;3.00;;
38399;SDS011;24180;42.676;23.320;2023-03-12T14:17:56;4.17;;;3.10;;
38399;SDS011;24180;42.676;23.320;2023-03-12T14:20:24;3.50;;;2.90;;
38399;SDS011;24180;42.676;23.320;2023-03-12T14:23:01;3.10;;;2.90;;
38399;SDS011;24180;42.676;23.320;2023-03-12T14:27:58;36.33;;;4.20;;
38399;SDS011;24180;42.676;23.320;2023-03-12T14:30:27;4.80;;;2.53;;
38399;SDS011;24180;42.676;23.320;2023-03-12T14:33:03;2.80;;;2.60;;
38399;SDS011;24180;42.676;23.320;2023-03-12T14:35:33;2.70;;;2.50;;
38399;SDS011;24180;42.676;23.320;2023-03-12T14:43:40;4.00;;;3.00;;
38399;SDS011;24180;42.676;23.320;2023-03-12T14:46:17;4.23;;;2.97;;
38399;SDS011;24180;42.676;23.320;2023-03-12T14:48:46;3.33;;;3.07;;
38399;SDS011;24180;42.676;23.320;2023-03-12T14:51:17;3.50;;;3.20;;
38399;SDS011;24180;42.676;23.320;2023-03-12T14:53:47;3.70;;;2.90;;
38399;SDS011;24180;42.676;23.320;2023-03-12T14:56:14;4.10;;;3.70;;
38399;SDS011;24180;42.676;23.320;2023-03-12T14:58:55;3.43;;;3.13;;
38399;SDS011;24180;42.676;23.320;2023-03-12T15:01:26;3.13;;;2.93;;
38399;SDS011;24180;42.676;23.320;2023-03-12T15:03:57;3.20;;;3.00;;
38399;SDS011;24180;42.676;23.320;2023-03-12T15:06:29;3.50;;;3.20;;
38399;SDS011;24180;42.676;23.320;2023-03-12T15:08:58;2.60;;;2.40;;
38399;SDS011;24180;42.676;23.320;2023-03-12T15:11:29;4.23;;;3.43;;
38399;SDS011;24180;42.676;23.320;2023-03-12T15:14:00;3.13;;;2.83;;
38399;SDS011;24180;42.676;23.320;2023-03-12T15:16:30;4.77;;;3.10;;
38399;SDS011;24180;42.676;23.320;2023-03-12T15:18:57;2.93;;;2.70;;
38399;SDS011;24180;42.676;23.320;2023-03-12T15:21:23;3.37;;;3.07;;
38399;SDS011;24180;42.676;23.320;2023-03-12T15:23:49;3.10;;;2.80;;
38399;SDS011;24180;42.676;23.320;2023-03-12T15:28:44;6.87;;;2.63;;
38399;SDS011;24180;42.676;23.320;2023-03-12T15:31:21;2.97;;;2.67;;
38399;SDS011;24180;42.676;23.320;2023-03-12T15:33:58;3.90;;;3.00;;
38399;SDS011;24180;42.676;23.320;2023-03-12T15:36:26;4.33;;;2.90;;
38399;SDS011;24180;42.676;23.320;2023-03-12T15:39:03;3.07;;;2.77;;
38399;SDS011;24180;42.676;23.320;2023-03-12T15:41:48;4.77;;;3.03;;
38399;SDS011;24180;42.676;23.320;2023-03-12T15:44:24;2.73;;;2.53;;
38399;SDS011;24180;42.676;23.320;2023-03-12T15:46:53;3.20;;;2.90;;
38399;SDS011;24180;42.676;23.320;2023-03-12T15:49:26;3.80;;;3.50;;
38399;SDS011;24180;42.676;23.320;2023-03-12T15:54:24;3.90;;;2.73;;
38399;SDS011;24180;42.676;23.320;2023-03-12T15:56:51;3.20;;;3.00;;
38399;SDS011;24180;42.676;23.320;2023-03-12T15:59:24;3.40;;;3.10;;
38399;SDS011;24180;42.676;23.320;2023-03-12T16:01:52;2.63;;;2.43;;
38399;SDS011;24180;42.676;23.320;2023-03-12T16:04:19;3.43;;;3.13;;
38399;SDS011;24180;42.676;23.320;2023-03-12T16:06:45;4.10;;;3.17;;
38399;SDS011;24180;42.676;23.320;2023-03-12T16:09:15;2.83;;;2.67;;
38399;SDS011;24180;42.676;23.320;2023-03-12T16:11:43;3.10;;;2.90;;
38399;SDS011;24180;42.676;23.320;2023-03-12T16:14:17;3.80;;;3.40;;
38399;SDS011;24180;42.676;23.320;2023-03-12T16:16:46;3.57;;;3.27;;
38399;SDS011;24180;42.676;23.320;2023-03-12T16:19:13;3.40;;;3.10;;
38399;SDS011;24180;42.676;23.320;2023-03-12T16:21:43;3.47;;;3.13;;
38399;SDS011;24180;42.676;23.320;2023-03-12T16:24:09;3.53;;;3.23;;
38399;SDS011;24180;42.676;23.320;2023-03-12T16:26:37;3.10;;;2.90;;
38399;SDS011;24180;42.676;23.320;2023-03-12T16:29:12;3.37;;;3.07;;
38399;SDS011;24180;42.676;23.320;2023-03-12T16:31:39;4.20;;;3.50;;
38399;SDS011;24180;42.676;23.320;2023-03-12T16:34:04;4.53;;;3.60;;
38399;SDS011;24180;42.676;23.320;2023-03-12T16:36:30;6.07;;;3.30;;
38399;SDS011;24180;42.676;23.320;2023-03-12T16:38:55;3.93;;;3.60;;
38399;SDS011;24180;42.676;23.320;2023-03-12T16:41:21;5.80;;;3.53;;